Cabeceiras, Brazil
Current Conditions -  °F | °C
As of 3:00 PM on Thursday 18 Dec 2014 (Local Time) from SBBR Reporting Station
Broken Clouds Broken Clouds  
Wind Chill: 79°   Ceiling: 8000
Heat Index: 81°   Visibility: 6mi
Dew Point: 64°   Wind: 5mph
Humidity: 61%   Direction: 270°W
Pressure: 29.94"   Gusts: NA
Location:  15.8°S, 46.93°W
Report Text: SBBR 181700Z 27004KT 9999 SCT030 FEW035TCU BKN080 26/18 Q1014
Loading
Personal Weather Stations






























Interactive Weather Map New forecast layout! Learn more

10-Day Weather Forecast

Advertisements
Track Severe Weather on mobile